Time;durP1;ratioP1;P1;durP2;ratioP2;P2;SDS_P1;SDS_P2;PMS_P1;PMS_P2;Temp;Humidity;BMP_temperature;BMP_pressure;BME280_temperature;BME280_humidity;BME280_pressure;Samples;Min_cycle;Max_cycle;Signal;HPM_P1;HPM_P2
2023/12/08 00:00:26;;;;;;;;;;;;;;;;;;5062044;28;19929;-71
2023/12/08 00:02:53;;;;;;;;;;;;;;;;;;5058232;28;19928;-73
2023/12/08 00:05:19;;;;;;;;;;;;;;;;;;5060130;28;19983;-71
2023/12/08 00:07:46;;;;;;;;;;;;;;;;;;5060911;28;20310;-73
2023/12/08 00:10:12;;;;;;;;;;;;;;;;;;5057518;28;19972;-72
2023/12/08 00:12:39;;;;;;;;;;;;;;;;;;5058742;28;20316;-73
2023/12/08 00:15:06;;;;;;;;;;;;;;;;;;5069160;28;20004;-71
2023/12/08 00:17:32;;;;;;;;;;;;;;;;;;5059950;28;19925;-71
2023/12/08 00:19:58;;;;;;;;;;;;;;;;;;5061745;28;20018;-71
2023/12/08 00:22:27;;;;;;;;;;;;;;;;;;5062181;28;20010;-72
2023/12/08 00:24:53;;;;;;;;;;;;;;;;;;5068078;28;20450;-73
2023/12/08 00:27:20;;;;;;;;;;;;;;;;;;5058625;28;20011;-73
2023/12/08 00:29:46;;;;;;;;;;;;;;;;;;5068275;28;19928;-72
2023/12/08 00:32:12;;;;;;;;;;;;;;;;;;5068780;28;19924;-73
2023/12/08 00:34:40;;;;;;;;;;;;;;;;;;5056944;28;19997;-73
2023/12/08 00:37:08;;;;;;;;;;;;;;;;;;5062723;28;19925;-71
2023/12/08 00:39:34;;;;;;;;;;;;;;;;;;5062081;28;19931;-72
2023/12/08 00:42:00;;;;;;;;;;;;;;;;;;5061819;28;19971;-71
2023/12/08 00:44:27;;;;;;;;;;;;;;;;;;5059789;28;19959;-72
2023/12/08 00:46:53;;;;;;;;;;;;;;;;;;5059565;28;20476;-71
2023/12/08 00:49:19;;;;;;;;;;;;;;;;;;5063777;28;19924;-71
2023/12/08 00:51:46;;;;;;;;;;;;;;;;;;5058313;28;19925;-72
2023/12/08 00:54:12;;;;;;;;;;;;;;;;;;5046376;28;20382;-72
2023/12/08 00:56:39;;;;;;;;;;;;;;;;;;5061264;28;19978;-74
2023/12/08 00:59:05;;;;;;;;;;;;;;;;;;5059618;28;19968;-72
2023/12/08 01:01:32;;;;;;;;;;;;;;;;;;5063840;28;20007;-71
2023/12/08 01:03:58;;;;;;;;;;;;;;;;;;5065822;28;19952;-71
2023/12/08 01:06:25;;;;;;;;;;;;;;;;;;5063206;28;19925;-71
2023/12/08 01:12:25;;;;;;;;;;;;;;;;;;5063439;28;19919;-71
2023/12/08 01:14:52;;;;;;;;;;;;;;;;;;5066999;28;20374;-72
2023/12/08 01:17:19;;;;;;;;;;;;;;;;;;5062021;28;19936;-75
2023/12/08 01:19:45;;;;;;;;;;;;;;;;;;5063702;28;20019;-72
2023/12/08 01:22:11;;;;;;;;;;;;;;;;;;5063503;28;19932;-70
2023/12/08 01:24:38;;;;;;;;;;;;;;;;;;5072090;28;19924;-71
2023/12/08 01:27:04;;;;;;;;;;;;;;;;;;5062423;28;19959;-74
2023/12/08 01:29:31;;;;;;;;;;;;;;;;;;5067217;28;20396;-72
2023/12/08 01:31:57;;;;;;;;;;;;;;;;;;5063651;28;19931;-72
2023/12/08 01:34:23;;;;;;;;;;;;;;;;;;5066305;28;19940;-72
2023/12/08 01:36:50;;;;;;;;;;;;;;;;;;5064894;28;20400;-72
2023/12/08 01:39:16;;;;;;;;;;;;;;;;;;5065640;28;19939;-73
2023/12/08 01:41:43;;;;;;;;;;;;;;;;;;5062097;28;20130;-73
2023/12/08 01:44:09;;;;;;;;;;;;;;;;;;5064066;28;19932;-74
2023/12/08 01:46:35;;;;;;;;;;;;;;;;;;5062695;28;20015;-74
2023/12/08 01:49:02;;;;;;;;;;;;;;;;;;5061491;28;20453;-71
2023/12/08 01:51:28;;;;;;;;;;;;;;;;;;5066581;28;19925;-72
2023/12/08 01:53:55;;;;;;;;;;;;;;;;;;5064302;28;19931;-72
2023/12/08 01:56:21;;;;;;;;;;;;;;;;;;5063056;28;20011;-75
2023/12/08 01:58:47;;;;;;;;;;;;;;;;;;5055608;28;20016;-73
2023/12/08 02:01:14;;;;;;;;;;;;;;;;;;5067381;28;19967;-71
2023/12/08 02:03:42;;;;;;;;;;;;;;;;;;5068989;28;19948;-73
2023/12/08 02:06:09;;;;;;;;;;;;;;;;;;5063149;28;19955;-73
2023/12/08 02:08:35;;;;;;;;;;;;;;;;;;5058742;28;19928;-73
2023/12/08 02:11:01;;;;;;;;;;;;;;;;;;5063534;28;19979;-74
2023/12/08 02:13:28;;;;;;;;;;;;;;;;;;5063102;28;19928;-73
2023/12/08 02:15:54;;;;;;;;;;;;;;;;;;5072692;28;19935;-73
2023/12/08 02:18:21;;;;;;;;;;;;;;;;;;5070567;28;19935;-76
2023/12/08 02:20:47;;;;;;;;;;;;;;;;;;5060177;28;20353;-77
2023/12/08 02:23:14;;;;;;;;;;;;;;;;;;5061541;28;19978;-76
2023/12/08 02:25:40;;;;;;;;;;;;;;;;;;5062536;28;20395;-76
2023/12/08 02:28:06;;;;;;;;;;;;;;;;;;5067318;28;19935;-75
2023/12/08 02:30:33;;;;;;;;;;;;;;;;;;5053294;28;19925;-76
2023/12/08 02:32:59;;;;;;;;;;;;;;;;;;5059378;28;19929;-76
2023/12/08 02:35:26;;;;;;;;;;;;;;;;;;5065719;28;19933;-76
2023/12/08 02:37:53;;;;;;;;;;;;;;;;;;5062749;28;20015;-75
2023/12/08 02:40:19;;;;;;;;;;;;;;;;;;5070529;28;20428;-76
2023/12/08 02:42:45;;;;;;;;;;;;;;;;;;5059747;28;20019;-75
2023/12/08 02:45:12;;;;;;;;;;;;;;;;;;5061949;28;19924;-76
2023/12/08 02:47:38;;;;;;;;;;;;;;;;;;5063452;28;19929;-76
2023/12/08 02:50:04;;;;;;;;;;;;;;;;;;5061048;28;19983;-74
2023/12/08 02:52:31;;;;;;;;;;;;;;;;;;5069546;28;19934;-73
2023/12/08 02:54:57;;;;;;;;;;;;;;;;;;5063554;28;19925;-74
2023/12/08 02:57:24;;;;;;;;;;;;;;;;;;5069719;28;20400;-75
2023/12/08 02:59:53;;;;;;;;;;;;;;;;;;5061287;28;20389;-76
2023/12/08 03:02:19;;;;;;;;;;;;;;;;;;5062119;28;19952;-76
2023/12/08 03:04:46;;;;;;;;;;;;;;;;;;5065003;28;19932;-75
2023/12/08 03:07:12;;;;;;;;;;;;;;;;;;5063974;28;19925;-75
2023/12/08 03:09:39;;;;;;;;;;;;;;;;;;5063562;28;20344;-76
2023/12/08 03:12:05;;;;;;;;;;;;;;;;;;5063073;28;19931;-76
2023/12/08 03:14:31;;;;;;;;;;;;;;;;;;5061807;28;19924;-76
2023/12/08 03:16:58;;;;;;;;;;;;;;;;;;5062119;28;19929;-76
2023/12/08 03:19:24;;;;;;;;;;;;;;;;;;5059927;28;19928;-75
2023/12/08 03:21:51;;;;;;;;;;;;;;;;;;5064348;28;19982;-75
2023/12/08 03:24:17;;;;;;;;;;;;;;;;;;5064082;28;19931;-76
2023/12/08 03:26:43;;;;;;;;;;;;;;;;;;5064021;28;19967;-76
2023/12/08 03:29:10;;;;;;;;;;;;;;;;;;5071147;28;20388;-75
2023/12/08 03:31:37;;;;;;;;;;;;;;;;;;5062579;28;19986;-76
2023/12/08 03:34:03;;;;;;;;;;;;;;;;;;5063024;28;19989;-75
2023/12/08 03:36:30;;;;;;;;;;;;;;;;;;5055310;28;19929;-77
2023/12/08 03:38:56;;;;;;;;;;;;;;;;;;5061238;28;19924;-76
2023/12/08 03:41:25;;;;;;;;;;;;;;;;;;5069735;28;19925;-76
2023/12/08 03:43:51;;;;;;;;;;;;;;;;;;5062724;28;19989;-77
2023/12/08 03:46:18;;;;;;;;;;;;;;;;;;5063520;28;19932;-75
2023/12/08 03:48:44;;;;;;;;;;;;;;;;;;5063810;28;19928;-74
2023/12/08 03:51:11;;;;;;;;;;;;;;;;;;5061605;28;19937;-75
2023/12/08 03:53:37;;;;;;;;;;;;;;;;;;5058474;28;20373;-77
2023/12/08 03:56:04;;;;;;;;;;;;;;;;;;5057843;28;19933;-74
2023/12/08 03:58:30;;;;;;;;;;;;;;;;;;5061681;28;19931;-76
2023/12/08 04:00:57;;;;;;;;;;;;;;;;;;5057795;28;19925;-77
2023/12/08 04:03:23;;;;;;;;;;;;;;;;;;5057814;28;19975;-78
2023/12/08 04:05:50;;;;;;;;;;;;;;;;;;5066841;28;19925;-76
2023/12/08 04:08:16;;;;;;;;;;;;;;;;;;5061633;28;19981;-75
2023/12/08 04:10:43;;;;;;;;;;;;;;;;;;5061563;28;20448;-76
2023/12/08 04:13:09;;;;;;;;;;;;;;;;;;5069077;28;19928;-76
2023/12/08 04:15:36;;;;;;;;;;;;;;;;;;5069052;28;20408;-76
2023/12/08 04:18:02;;;;;;;;;;;;;;;;;;5048837;28;19932;-76
2023/12/08 04:20:29;;;;;;;;;;;;;;;;;;5059250;28;19936;-77
2023/12/08 04:22:55;;;;;;;;;;;;;;;;;;5061258;28;20419;-77
2023/12/08 04:25:22;;;;;;;;;;;;;;;;;;5060658;28;19951;-75
2023/12/08 04:27:48;;;;;;;;;;;;;;;;;;5061359;28;19925;-76
2023/12/08 04:30:14;;;;;;;;;;;;;;;;;;5060729;28;20020;-76
2023/12/08 04:32:41;;;;;;;;;;;;;;;;;;5061005;28;20015;-78
2023/12/08 04:35:07;;;;;;;;;;;;;;;;;;5069298;28;19975;-74
2023/12/08 04:37:34;;;;;;;;;;;;;;;;;;5065402;28;19932;-77
2023/12/08 04:40:00;;;;;;;;;;;;;;;;;;5067339;28;19925;-79
2023/12/08 04:42:26;;;;;;;;;;;;;;;;;;5069746;28;20030;-80
2023/12/08 04:44:53;;;;;;;;;;;;;;;;;;5056123;28;19935;-79
2023/12/08 04:47:19;;;;;;;;;;;;;;;;;;5069029;28;19974;-78
2023/12/08 04:49:45;;;;;;;;;;;;;;;;;;5073400;28;19929;-76
2023/12/08 04:52:12;;;;;;;;;;;;;;;;;;5064695;28;20468;-77
2023/12/08 04:54:38;;;;;;;;;;;;;;;;;;5056514;28;20372;-80
2023/12/08 04:57:05;;;;;;;;;;;;;;;;;;5062213;28;19936;-77
2023/12/08 04:59:32;;;;;;;;;;;;;;;;;;5070989;28;19924;-78
2023/12/08 05:01:59;;;;;;;;;;;;;;;;;;5065759;28;20014;-79
2023/12/08 05:04:25;;;;;;;;;;;;;;;;;;5065045;28;19934;-79
2023/12/08 05:06:52;;;;;;;;;;;;;;;;;;5066561;28;19928;-80
2023/12/08 05:09:18;;;;;;;;;;;;;;;;;;5064829;28;19967;-79
2023/12/08 05:11:44;;;;;;;;;;;;;;;;;;5060621;28;20491;-78
2023/12/08 05:14:11;;;;;;;;;;;;;;;;;;5072143;28;20018;-79
2023/12/08 05:16:37;;;;;;;;;;;;;;;;;;5073361;28;19928;-81
2023/12/08 05:19:04;;;;;;;;;;;;;;;;;;5070290;28;19925;-80
2023/12/08 05:21:30;;;;;;;;;;;;;;;;;;5062884;28;19924;-80
2023/12/08 05:23:57;;;;;;;;;;;;;;;;;;5062636;28;19935;-80
2023/12/08 05:26:25;;;;;;;;;;;;;;;;;;5069950;28;20019;-81
2023/12/08 05:28:51;;;;;;;;;;;;;;;;;;5064251;28;20407;-79
2023/12/08 05:31:18;;;;;;;;;;;;;;;;;;5064002;28;19925;-79
2023/12/08 05:33:44;;;;;;;;;;;;;;;;;;5066479;28;20392;-80
2023/12/08 05:36:11;;;;;;;;;;;;;;;;;;5065365;28;20039;-82
2023/12/08 05:38:37;;;;;;;;;;;;;;;;;;5060807;28;20480;-79
2023/12/08 05:41:04;;;;;;;;;;;;;;;;;;5071782;28;20393;-80
2023/12/08 05:43:30;;;;;;;;;;;;;;;;;;5065791;28;19931;-80
2023/12/08 05:45:57;;;;;;;;;;;;;;;;;;5070657;28;19978;-81
2023/12/08 05:48:24;;;;;;;;;;;;;;;;;;5055455;28;20016;-81
2023/12/08 05:50:50;;;;;;;;;;;;;;;;;;5074045;28;19932;-81
2023/12/08 05:53:17;;;;;;;;;;;;;;;;;;5071911;28;19925;-81
2023/12/08 05:55:43;;;;;;;;;;;;;;;;;;5065263;28;19963;-82
2023/12/08 05:58:10;;;;;;;;;;;;;;;;;;5064049;28;19932;-80
2023/12/08 06:00:37;;;;;;;;;;;;;;;;;;5065900;28;20305;-80
2023/12/08 06:03:04;;;;;;;;;;;;;;;;;;5069644;28;19924;-81
2023/12/08 06:05:30;;;;;;;;;;;;;;;;;;5066472;28;19931;-78
2023/12/08 06:07:59;;;;;;;;;;;;;;;;;;5068173;28;20308;-80
2023/12/08 06:10:26;;;;;;;;;;;;;;;;;;5068683;28;19974;-81
2023/12/08 06:12:52;;;;;;;;;;;;;;;;;;5074509;28;19924;-81
2023/12/08 06:15:19;;;;;;;;;;;;;;;;;;5069192;28;19978;-78
2023/12/08 06:17:46;;;;;;;;;;;;;;;;;;5063517;28;19935;-79
2023/12/08 06:20:12;;;;;;;;;;;;;;;;;;5068376;28;19935;-79
2023/12/08 06:22:41;;;;;;;;;;;;;;;;;;5068211;28;20284;-78
2023/12/08 06:25:08;;;;;;;;;;;;;;;;;;5059507;28;19931;-80
2023/12/08 06:27:34;;;;;;;;;;;;;;;;;;5053294;28;19964;-78
2023/12/08 06:30:08;;;;;;;;;;;;;;;;;;5072719;28;19978;-80
2023/12/08 06:32:35;;;;;;;;;;;;;;;;;;5073653;28;19971;-80
2023/12/08 06:35:01;;;;;;;;;;;;;;;;;;5058090;28;20369;-81
2023/12/08 06:37:28;;;;;;;;;;;;;;;;;;5054683;28;19929;-80
2023/12/08 06:39:55;;;;;;;;;;;;;;;;;;5062391;28;20313;-79
2023/12/08 06:42:22;;;;;;;;;;;;;;;;;;5066134;28;19935;-81
2023/12/08 06:44:48;;;;;;;;;;;;;;;;;;5069319;28;19967;-81
2023/12/08 06:47:15;;;;;;;;;;;;;;;;;;5056714;28;20471;-80
2023/12/08 06:49:42;;;;;;;;;;;;;;;;;;5062698;28;19924;-80
2023/12/08 06:52:08;;;;;;;;;;;;;;;;;;5069019;28;20442;-80
2023/12/08 06:54:37;;;;;;;;;;;;;;;;;;5062405;28;19956;-81
2023/12/08 06:57:04;;;;;;;;;;;;;;;;;;5051127;28;20382;-81
2023/12/08 06:59:31;;;;;;;;;;;;;;;;;;5065201;28;20035;-81
2023/12/08 07:01:59;;;;;;;;;;;;;;;;;;5067268;28;19924;-81
2023/12/08 07:04:27;;;;;;;;;;;;;;;;;;5061545;28;19924;-81
2023/12/08 07:06:53;;;;;;;;;;;;;;;;;;5067325;28;19990;-80
2023/12/08 07:09:20;;;;;;;;;;;;;;;;;;5066427;28;20019;-79
2023/12/08 07:11:47;;;;;;;;;;;;;;;;;;5071767;28;20339;-81
2023/12/08 07:14:18;;;;;;;;;;;;;;;;;;5065847;28;19994;-81
2023/12/08 07:16:45;;;;;;;;;;;;;;;;;;5063175;28;19929;-81
2023/12/08 07:19:11;;;;;;;;;;;;;;;;;;5061694;28;19978;-80
2023/12/08 07:21:38;;;;;;;;;;;;;;;;;;5048730;28;19932;-81
2023/12/08 07:24:07;;;;;;;;;;;;;;;;;;5072819;28;20039;-79
2023/12/08 07:26:35;;;;;;;;;;;;;;;;;;5062866;28;20666;-80
2023/12/08 07:29:02;;;;;;;;;;;;;;;;;;5063917;28;19924;-81
2023/12/08 07:31:28;;;;;;;;;;;;;;;;;;5061574;28;20320;-80
2023/12/08 07:33:55;;;;;;;;;;;;;;;;;;5065500;28;19937;-80
2023/12/08 07:36:25;;;;;;;;;;;;;;;;;;5056811;28;19928;-81
2023/12/08 07:38:52;;;;;;;;;;;;;;;;;;5062224;28;20290;-80
2023/12/08 07:41:20;;;;;;;;;;;;;;;;;;5065957;28;19931;-80
2023/12/08 07:43:48;;;;;;;;;;;;;;;;;;5064344;28;20021;-79
2023/12/08 07:46:18;;;;;;;;;;;;;;;;;;5064288;28;19928;-80
2023/12/08 07:48:45;;;;;;;;;;;;;;;;;;5065137;28;19979;-79
2023/12/08 07:51:13;;;;;;;;;;;;;;;;;;5071895;28;20436;-80
2023/12/08 07:53:41;;;;;;;;;;;;;;;;;;5057692;28;19928;-81
2023/12/08 07:56:14;;;;;;;;;;;;;;;;;;5063091;28;20278;-78
2023/12/08 07:58:41;;;;;;;;;;;;;;;;;;5062749;28;20007;-80
2023/12/08 08:01:07;;;;;;;;;;;;;;;;;;5058301;28;19925;-80
2023/12/08 08:03:36;;;;;;;;;;;;;;;;;;5068463;28;20272;-81
2023/12/08 08:06:03;;;;;;;;;;;;;;;;;;5058726;28;19932;-80
2023/12/08 08:08:30;;;;;;;;;;;;;;;;;;5071602;28;19931;-80
2023/12/08 08:10:59;;;;;;;;;;;;;;;;;;5062120;28;19924;-80
2023/12/08 08:13:28;;;;;;;;;;;;;;;;;;5066682;28;19939;-80
2023/12/08 08:15:54;;;;;;;;;;;;;;;;;;5068581;28;19936;-80
2023/12/08 08:18:23;;;;;;;;;;;;;;;;;;5072658;28;20396;-78
2023/12/08 08:20:49;;;;;;;;;;;;;;;;;;5060695;28;19947;-80
2023/12/08 08:23:16;;;;;;;;;;;;;;;;;;5061930;28;19929;-79
2023/12/08 08:25:46;;;;;;;;;;;;;;;;;;5063751;28;19943;-81
2023/12/08 08:28:12;;;;;;;;;;;;;;;;;;5067217;28;19935;-80
2023/12/08 08:30:38;;;;;;;;;;;;;;;;;;5067130;28;19968;-79
2023/12/08 08:33:06;;;;;;;;;;;;;;;;;;5071961;28;19934;-81
2023/12/08 08:35:36;;;;;;;;;;;;;;;;;;5067743;28;20002;-80
2023/12/08 08:38:03;;;;;;;;;;;;;;;;;;5068929;28;19929;-81
2023/12/08 08:40:31;;;;;;;;;;;;;;;;;;5071716;28;19987;-80
2023/12/08 08:43:00;;;;;;;;;;;;;;;;;;5064976;28;19930;-80
2023/12/08 08:45:29;;;;;;;;;;;;;;;;;;5055070;28;20031;-80
2023/12/08 08:47:55;;;;;;;;;;;;;;;;;;5055512;28;19932;-80
2023/12/08 08:50:23;;;;;;;;;;;;;;;;;;5060581;28;20385;-80
2023/12/08 08:52:57;;;;;;;;;;;;;;;;;;5065836;28;19924;-80
2023/12/08 08:55:23;;;;;;;;;;;;;;;;;;5058461;28;19925;-80
2023/12/08 08:57:51;;;;;;;;;;;;;;;;;;5060752;28;19986;-81
2023/12/08 09:00:18;;;;;;;;;;;;;;;;;;5070302;28;19963;-79
2023/12/08 09:02:51;;;;;;;;;;;;;;;;;;5062973;28;19925;-82
2023/12/08 09:05:17;;;;;;;;;;;;;;;;;;5069049;28;20352;-82
2023/12/08 09:07:44;;;;;;;;;;;;;;;;;;5063444;28;19946;-80
2023/12/08 09:10:14;;;;;;;;;;;;;;;;;;5048232;28;19982;-80
2023/12/08 09:12:41;;;;;;;;;;;;;;;;;;5060956;28;19925;-81
2023/12/08 09:15:08;;;;;;;;;;;;;;;;;;5064509;28;19932;-81
2023/12/08 09:17:34;;;;;;;;;;;;;;;;;;5071786;28;19924;-79
2023/12/08 09:20:01;;;;;;;;;;;;;;;;;;5068069;28;19932;-80
2023/12/08 09:22:28;;;;;;;;;;;;;;;;;;5054159;28;19925;-82
2023/12/08 09:24:55;;;;;;;;;;;;;;;;;;5077235;28;19925;-79
2023/12/08 09:27:24;;;;;;;;;;;;;;;;;;5068096;28;19924;-81
2023/12/08 09:29:50;;;;;;;;;;;;;;;;;;5072315;28;19924;-81
2023/12/08 09:32:17;;;;;;;;;;;;;;;;;;5069147;28;19998;-81
2023/12/08 09:34:44;;;;;;;;;;;;;;;;;;5075256;28;20261;-79
2023/12/08 09:37:11;;;;;;;;;;;;;;;;;;5069483;28;19956;-80
2023/12/08 09:39:52;;;;;;;;;;;;;;;;;;5082869;28;19948;-79
2023/12/08 09:42:21;;;;;;;;;;;;;;;;;;5069122;28;19951;-79
2023/12/08 09:44:48;;;;;;;;;;;;;;;;;;5069011;28;19925;-78
2023/12/08 09:47:15;;;;;;;;;;;;;;;;;;5075116;28;20095;-80
2023/12/08 09:49:43;;;;;;;;;;;;;;;;;;5074148;28;19955;-81
2023/12/08 09:52:09;;;;;;;;;;;;;;;;;;5071452;28;19924;-81
2023/12/08 09:54:37;;;;;;;;;;;;;;;;;;5075953;28;19948;-81
2023/12/08 09:57:04;;;;;;;;;;;;;;;;;;5077356;28;20019;-80
2023/12/08 09:59:32;;;;;;;;;;;;;;;;;;5073029;28;19932;-80
2023/12/08 10:02:00;;;;;;;;;;;;;;;;;;5064286;28;20015;-79
2023/12/08 10:04:26;;;;;;;;;;;;;;;;;;5070743;28;19960;-81
2023/12/08 10:06:53;;;;;;;;;;;;;;;;;;5067768;28;20320;-80
2023/12/08 10:09:21;;;;;;;;;;;;;;;;;;5062515;28;20023;-80
2023/12/08 10:11:51;;;;;;;;;;;;;;;;;;5076570;28;19964;-81
2023/12/08 10:14:20;;;;;;;;;;;;;;;;;;5060714;28;19975;-80
2023/12/08 10:16:48;;;;;;;;;;;;;;;;;;5059942;28;20351;-81
2023/12/08 10:19:15;;;;;;;;;;;;;;;;;;5065280;28;19924;-79
2023/12/08 10:21:43;;;;;;;;;;;;;;;;;;5065284;28;20676;-80
2023/12/08 10:24:12;;;;;;;;;;;;;;;;;;5063374;28;20002;-80
2023/12/08 10:26:40;;;;;;;;;;;;;;;;;;5063563;28;19931;-80
2023/12/08 10:29:08;;;;;;;;;;;;;;;;;;5074330;28;19931;-80
2023/12/08 10:31:36;;;;;;;;;;;;;;;;;;5077106;28;19928;-80
2023/12/08 10:34:04;;;;;;;;;;;;;;;;;;5072687;28;20324;-81
2023/12/08 10:36:33;;;;;;;;;;;;;;;;;;5077774;28;19924;-79
2023/12/08 10:39:02;;;;;;;;;;;;;;;;;;5074678;28;20385;-80
2023/12/08 10:41:36;;;;;;;;;;;;;;;;;;5077780;28;20020;-79
2023/12/08 10:44:03;;;;;;;;;;;;;;;;;;5075950;28;19924;-80
2023/12/08 10:46:29;;;;;;;;;;;;;;;;;;5070877;28;19925;-80
2023/12/08 10:48:56;;;;;;;;;;;;;;;;;;5076077;28;19928;-80
2023/12/08 10:51:23;;;;;;;;;;;;;;;;;;5077729;28;19932;-80
2023/12/08 10:53:51;;;;;;;;;;;;;;;;;;5066298;28;19928;-79
2023/12/08 10:56:19;;;;;;;;;;;;;;;;;;5067897;28;20300;-82
2023/12/08 10:58:46;;;;;;;;;;;;;;;;;;5078425;28;19971;-80
2023/12/08 11:01:13;;;;;;;;;;;;;;;;;;5076865;28;19935;-79
2023/12/08 11:03:39;;;;;;;;;;;;;;;;;;5060171;28;19932;-80
2023/12/08 11:06:09;;;;;;;;;;;;;;;;;;5066127;28;19975;-80
2023/12/08 11:08:36;;;;;;;;;;;;;;;;;;5055182;28;20099;-81
2023/12/08 11:11:03;;;;;;;;;;;;;;;;;;5069759;28;19924;-78
2023/12/08 11:13:30;;;;;;;;;;;;;;;;;;5071225;28;20003;-81
2023/12/08 11:15:57;;;;;;;;;;;;;;;;;;5066510;28;19929;-82
2023/12/08 11:18:26;;;;;;;;;;;;;;;;;;5057988;28;19933;-80
2023/12/08 11:20:53;;;;;;;;;;;;;;;;;;5064566;28;19928;-80
2023/12/08 11:23:21;;;;;;;;;;;;;;;;;;5056034;28;19943;-79
2023/12/08 11:25:47;;;;;;;;;;;;;;;;;;5058011;28;19925;-80
2023/12/08 11:28:14;;;;;;;;;;;;;;;;;;5069575;28;20023;-80
2023/12/08 11:30:41;;;;;;;;;;;;;;;;;;5068988;28;19980;-80
2023/12/08 11:33:09;;;;;;;;;;;;;;;;;;5056981;28;19925;-80
2023/12/08 11:35:36;;;;;;;;;;;;;;;;;;5074930;28;19947;-81
2023/12/08 11:38:03;;;;;;;;;;;;;;;;;;5048014;28;19928;-80
2023/12/08 11:40:29;;;;;;;;;;;;;;;;;;5063826;28;19929;-79
2023/12/08 11:42:56;;;;;;;;;;;;;;;;;;5076424;28;20023;-79
2023/12/08 11:45:23;;;;;;;;;;;;;;;;;;5058156;28;19978;-81
2023/12/08 11:47:49;;;;;;;;;;;;;;;;;;5061457;28;19924;-81
2023/12/08 11:50:19;;;;;;;;;;;;;;;;;;5070266;28;19974;-80
2023/12/08 11:52:46;;;;;;;;;;;;;;;;;;5064175;28;19997;-81
2023/12/08 11:55:19;;;;;;;;;;;;;;;;;;5063010;28;19925;-80
2023/12/08 11:57:53;;;;;;;;;;;;;;;;;;5073851;28;19925;-79
2023/12/08 12:00:20;;;;;;;;;;;;;;;;;;5073738;28;19929;-80
2023/12/08 12:02:47;;;;;;;;;;;;;;;;;;5061630;28;19992;-79
2023/12/08 12:05:13;;;;;;;;;;;;;;;;;;5077216;28;19924;-81
2023/12/08 12:07:40;;;;;;;;;;;;;;;;;;5059419;28;19924;-81
2023/12/08 12:10:07;;;;;;;;;;;;;;;;;;5072603;28;19924;-80
2023/12/08 12:12:33;;;;;;;;;;;;;;;;;;5076947;28;19932;-81
2023/12/08 12:15:00;;;;;;;;;;;;;;;;;;5065450;28;19933;-80
2023/12/08 12:17:27;;;;;;;;;;;;;;;;;;5050321;28;19925;-81
2023/12/08 12:19:54;;;;;;;;;;;;;;;;;;5074875;28;19959;-82
2023/12/08 12:22:20;;;;;;;;;;;;;;;;;;5072572;28;20381;-80
2023/12/08 12:24:46;;;;;;;;;;;;;;;;;;5075178;28;19928;-81
2023/12/08 12:27:14;;;;;;;;;;;;;;;;;;5066467;28;19932;-80
2023/12/08 12:29:41;;;;;;;;;;;;;;;;;;5074958;28;19994;-80
2023/12/08 12:32:08;;;;;;;;;;;;;;;;;;5069236;28;20259;-81
2023/12/08 12:34:34;;;;;;;;;;;;;;;;;;5068931;28;19968;-82
2023/12/08 12:37:01;;;;;;;;;;;;;;;;;;5072210;28;19935;-79
2023/12/08 12:39:28;;;;;;;;;;;;;;;;;;5054472;28;19928;-79
2023/12/08 12:41:54;;;;;;;;;;;;;;;;;;5066050;28;19960;-80
2023/12/08 12:44:21;;;;;;;;;;;;;;;;;;5071716;28;19925;-81
2023/12/08 12:46:47;;;;;;;;;;;;;;;;;;5066330;28;20304;-81
2023/12/08 12:49:17;;;;;;;;;;;;;;;;;;5053003;28;19967;-81
2023/12/08 12:51:44;;;;;;;;;;;;;;;;;;5069483;28;20431;-80
2023/12/08 12:54:10;;;;;;;;;;;;;;;;;;5064632;28;19947;-79
2023/12/08 12:56:37;;;;;;;;;;;;;;;;;;5064072;28;20338;-80
2023/12/08 12:59:04;;;;;;;;;;;;;;;;;;5074010;28;19948;-80
2023/12/08 13:01:31;;;;;;;;;;;;;;;;;;5075571;28;20322;-81
2023/12/08 13:03:58;;;;;;;;;;;;;;;;;;5059850;28;20293;-81
2023/12/08 13:06:25;;;;;;;;;;;;;;;;;;5057031;28;19937;-81
2023/12/08 13:08:53;;;;;;;;;;;;;;;;;;5058036;28;19924;-81
2023/12/08 13:11:20;;;;;;;;;;;;;;;;;;5049871;28;19925;-81
2023/12/08 13:13:46;;;;;;;;;;;;;;;;;;5069215;28;19964;-80
2023/12/08 13:16:13;;;;;;;;;;;;;;;;;;5072210;28;20076;-80
2023/12/08 13:18:39;;;;;;;;;;;;;;;;;;5072310;28;19998;-80
2023/12/08 13:21:07;;;;;;;;;;;;;;;;;;5073902;28;19932;-79
2023/12/08 13:23:34;;;;;;;;;;;;;;;;;;5059968;28;19924;-81
2023/12/08 13:26:00;;;;;;;;;;;;;;;;;;5061096;28;19948;-80
2023/12/08 13:28:26;;;;;;;;;;;;;;;;;;5068821;28;20282;-80
2023/12/08 13:30:53;;;;;;;;;;;;;;;;;;5073052;28;19924;-80
2023/12/08 13:33:21;;;;;;;;;;;;;;;;;;5070584;28;19982;-79
2023/12/08 13:35:49;;;;;;;;;;;;;;;;;;5078146;28;20296;-80
2023/12/08 13:38:15;;;;;;;;;;;;;;;;;;5073090;28;19982;-80
2023/12/08 13:40:42;;;;;;;;;;;;;;;;;;5073687;28;19924;-81
2023/12/08 13:43:08;;;;;;;;;;;;;;;;;;5065887;28;20003;-80
2023/12/08 13:45:35;;;;;;;;;;;;;;;;;;5069481;28;19925;-79
2023/12/08 13:48:02;;;;;;;;;;;;;;;;;;5059334;28;19924;-80
2023/12/08 13:50:29;;;;;;;;;;;;;;;;;;5067323;28;19928;-79
2023/12/08 13:52:56;;;;;;;;;;;;;;;;;;5074734;28;19931;-81
2023/12/08 13:55:22;;;;;;;;;;;;;;;;;;5076184;28;19924;-80
2023/12/08 13:57:49;;;;;;;;;;;;;;;;;;5069235;28;19929;-79
2023/12/08 14:00:16;;;;;;;;;;;;;;;;;;5067485;28;20015;-80
2023/12/08 14:02:42;;;;;;;;;;;;;;;;;;5072758;28;20401;-80
2023/12/08 14:05:10;;;;;;;;;;;;;;;;;;5065161;28;19924;-79
2023/12/08 14:07:37;;;;;;;;;;;;;;;;;;5057101;28;19935;-80
2023/12/08 14:10:04;;;;;;;;;;;;;;;;;;5072796;28;19924;-79
2023/12/08 14:12:30;;;;;;;;;;;;;;;;;;5077753;28;19929;-80
2023/12/08 14:14:56;;;;;;;;;;;;;;;;;;5058358;28;20924;-80
2023/12/08 14:17:23;;;;;;;;;;;;;;;;;;5073632;28;20031;-79
2023/12/08 14:19:50;;;;;;;;;;;;;;;;;;5067429;28;19931;-79
2023/12/08 14:22:16;;;;;;;;;;;;;;;;;;5072035;28;19928;-80
2023/12/08 14:24:43;;;;;;;;;;;;;;;;;;5064719;28;19951;-79
2023/12/08 14:27:09;;;;;;;;;;;;;;;;;;5062068;28;19925;-80
2023/12/08 14:29:36;;;;;;;;;;;;;;;;;;5066619;28;20366;-80
2023/12/08 14:32:03;;;;;;;;;;;;;;;;;;5060591;28;19925;-78
2023/12/08 14:34:30;;;;;;;;;;;;;;;;;;5070839;28;19925;-79
2023/12/08 14:36:56;;;;;;;;;;;;;;;;;;5097328;28;20019;-81
2023/12/08 14:39:23;;;;;;;;;;;;;;;;;;5078515;28;19925;-80
2023/12/08 14:41:49;;;;;;;;;;;;;;;;;;5078370;28;19959;-78
2023/12/08 14:44:16;;;;;;;;;;;;;;;;;;5062919;28;20344;-76
2023/12/08 14:46:48;;;;;;;;;;;;;;;;;;5060630;28;20408;-74
2023/12/08 14:49:17;;;;;;;;;;;;;;;;;;5067308;28;19925;-76
2023/12/08 14:51:44;;;;;;;;;;;;;;;;;;5070287;28;19924;-75
2023/12/08 14:54:10;;;;;;;;;;;;;;;;;;5061922;28;20294;-76
2023/12/08 14:56:36;;;;;;;;;;;;;;;;;;5065639;28;19975;-75
2023/12/08 14:59:03;;;;;;;;;;;;;;;;;;5069936;28;20302;-79
2023/12/08 15:01:29;;;;;;;;;;;;;;;;;;5044652;28;19961;-76
2023/12/08 15:03:56;;;;;;;;;;;;;;;;;;5060945;28;19924;-74
2023/12/08 15:06:22;;;;;;;;;;;;;;;;;;5057121;28;20389;-75
2023/12/08 15:08:49;;;;;;;;;;;;;;;;;;5069863;28;19929;-80
2023/12/08 15:11:15;;;;;;;;;;;;;;;;;;5080211;28;19932;-75
2023/12/08 15:13:41;;;;;;;;;;;;;;;;;;5060178;28;19931;-75
2023/12/08 15:16:10;;;;;;;;;;;;;;;;;;5062455;28;20123;-75
2023/12/08 15:18:36;;;;;;;;;;;;;;;;;;5064217;28;20022;-76
2023/12/08 15:21:05;;;;;;;;;;;;;;;;;;5051200;28;19928;-75
2023/12/08 15:23:32;;;;;;;;;;;;;;;;;;5061620;28;19982;-75
2023/12/08 15:25:59;;;;;;;;;;;;;;;;;;5060699;28;19964;-75
2023/12/08 15:28:25;;;;;;;;;;;;;;;;;;5059033;28;19963;-76
2023/12/08 15:30:51;;;;;;;;;;;;;;;;;;5067866;28;19956;-75
2023/12/08 15:33:18;;;;;;;;;;;;;;;;;;5062785;28;20430;-74
2023/12/08 15:35:45;;;;;;;;;;;;;;;;;;5064620;28;20023;-75
2023/12/08 15:38:12;;;;;;;;;;;;;;;;;;5066216;28;19925;-75
2023/12/08 15:40:38;;;;;;;;;;;;;;;;;;5052438;28;19928;-75
2023/12/08 15:43:05;;;;;;;;;;;;;;;;;;5061748;28;19924;-75
2023/12/08 15:45:31;;;;;;;;;;;;;;;;;;5062215;28;19933;-75
2023/12/08 15:47:58;;;;;;;;;;;;;;;;;;5070935;28;19963;-74
2023/12/08 15:50:25;;;;;;;;;;;;;;;;;;5065298;28;19925;-75
2023/12/08 15:52:51;;;;;;;;;;;;;;;;;;5060689;28;19924;-75
2023/12/08 15:55:17;;;;;;;;;;;;;;;;;;5056227;28;19946;-75
2023/12/08 15:57:44;;;;;;;;;;;;;;;;;;5069262;28;19931;-76
2023/12/08 16:00:10;;;;;;;;;;;;;;;;;;5067547;28;19925;-76
2023/12/08 16:02:39;;;;;;;;;;;;;;;;;;5063178;28;19970;-76
2023/12/08 16:05:05;;;;;;;;;;;;;;;;;;5061502;28;19983;-75
2023/12/08 16:07:32;;;;;;;;;;;;;;;;;;5057806;28;19963;-75
2023/12/08 16:09:58;;;;;;;;;;;;;;;;;;5065686;28;19924;-76
2023/12/08 16:12:25;;;;;;;;;;;;;;;;;;5066617;28;19959;-80
2023/12/08 16:14:52;;;;;;;;;;;;;;;;;;5070556;28;19974;-80
2023/12/08 16:17:18;;;;;;;;;;;;;;;;;;5068459;28;19964;-80
2023/12/08 16:19:45;;;;;;;;;;;;;;;;;;5075482;28;19924;-80
2023/12/08 16:22:11;;;;;;;;;;;;;;;;;;5082540;28;19972;-80
2023/12/08 16:24:41;;;;;;;;;;;;;;;;;;5071899;28;19931;-79
2023/12/08 16:27:08;;;;;;;;;;;;;;;;;;5067523;28;19924;-80
2023/12/08 16:29:34;;;;;;;;;;;;;;;;;;5076126;28;20012;-80
2023/12/08 16:32:01;;;;;;;;;;;;;;;;;;5074395;28;19925;-79
2023/12/08 16:34:28;;;;;;;;;;;;;;;;;;5074861;28;19939;-79
2023/12/08 16:36:54;;;;;;;;;;;;;;;;;;5067708;28;19932;-80
2023/12/08 16:39:21;;;;;;;;;;;;;;;;;;5077680;28;20353;-79
2023/12/08 16:41:49;;;;;;;;;;;;;;;;;;5078476;28;19931;-80
2023/12/08 16:44:15;;;;;;;;;;;;;;;;;;5071417;28;20445;-80
2023/12/08 16:46:42;;;;;;;;;;;;;;;;;;5075028;28;19928;-80